Time;durP1;ratioP1;P1;durP2;ratioP2;P2;SDS_P1;SDS_P2;PMS_P1;PMS_P2;Temp;Humidity;BMP_temperature;BMP_pressure;BME280_temperature;BME280_humidity;BME280_pressure;Samples;Min_cycle;Max_cycle;Signal;HPM_P1;HPM_P2
2022/05/13 00:01:11;;;;;;;7.55;2.25;;;12.00;99.90;;;;;;4952386;28;20071;-50
2022/05/13 00:03:38;;;;;;;7.40;2.30;;;12.00;99.90;;;;;;4952447;29;20075;-51
2022/05/13 00:06:05;;;;;;;7.57;1.90;;;11.90;99.90;;;;;;4952389;29;20045;-49
2022/05/13 00:08:31;;;;;;;7.95;2.08;;;11.90;99.90;;;;;;4952320;29;20043;-50
2022/05/13 00:10:57;;;;;;;7.30;2.05;;;11.80;99.90;;;;;;4951319;29;20035;-51
2022/05/13 00:13:23;;;;;;;5.47;1.85;;;11.80;99.90;;;;;;4951166;29;20043;-51
2022/05/13 00:15:50;;;;;;;7.90;2.00;;;11.80;99.90;;;;;;4953011;28;20045;-50
2022/05/13 00:18:17;;;;;;;5.10;1.60;;;11.80;99.90;;;;;;4955301;28;20066;-47
2022/05/13 00:20:43;;;;;;;6.10;2.03;;;11.70;99.90;;;;;;4955860;28;20054;-50
2022/05/13 00:23:09;;;;;;;7.25;1.98;;;11.60;99.90;;;;;;4955787;28;20071;-48
2022/05/13 00:25:36;;;;;;;6.13;1.90;;;11.70;99.90;;;;;;4955517;28;20043;-48
2022/05/13 00:28:04;;;;;;;9.15;2.05;;;11.50;99.90;;;;;;4955675;28;20130;-48
2022/05/13 00:30:35;;;;;;;8.20;2.15;;;11.50;99.90;;;;;;4955540;28;20047;-47
2022/05/13 00:33:01;;;;;;;7.28;2.10;;;11.40;99.90;;;;;;4955545;29;20498;-47
2022/05/13 00:35:27;;;;;;;8.20;2.20;;;11.40;99.90;;;;;;4955665;28;20035;-48
2022/05/13 00:37:53;;;;;;;7.82;2.28;;;11.40;99.90;;;;;;4955294;29;20094;-46
2022/05/13 00:40:24;;;;;;;7.32;2.00;;;11.50;99.90;;;;;;4955711;28;20039;-48
2022/05/13 00:42:56;;;;;;;7.53;2.10;;;11.50;99.90;;;;;;4955490;28;20070;-49
2022/05/13 00:45:22;;;;;;;7.13;1.98;;;11.50;99.90;;;;;;4955325;29;20118;-47
2022/05/13 00:47:47;;;;;;;7.50;2.05;;;11.50;99.90;;;;;;4953483;29;20059;-47
2022/05/13 00:50:14;;;;;;;5.18;2.10;;;11.60;99.90;;;;;;4955311;28;20422;-49
2022/05/13 00:52:43;;;;;;;7.78;2.20;;;11.50;99.90;;;;;;4955057;29;20131;-49
2022/05/13 00:55:14;;;;;;;7.05;2.00;;;11.60;99.90;;;;;;4953476;29;20039;-51
2022/05/13 00:57:40;;;;;;;8.07;2.40;;;11.40;99.90;;;;;;4955092;29;20035;-50
2022/05/13 01:00:11;;;;;;;8.00;2.20;;;11.50;99.90;;;;;;4954889;28;20036;-51
2022/05/13 01:02:38;;;;;;;7.30;2.03;;;11.40;99.90;;;;;;4953663;29;20523;-47
2022/05/13 01:05:05;;;;;;;9.82;2.35;;;11.40;99.90;;;;;;4955241;28;20053;-50
2022/05/13 01:07:32;;;;;;;6.70;2.08;;;11.50;99.90;;;;;;4953915;28;20049;-51
2022/05/13 01:10:01;;;;;;;7.88;2.35;;;11.60;99.90;;;;;;4954669;28;20039;-49
2022/05/13 01:12:32;;;;;;;7.43;2.35;;;11.60;99.90;;;;;;4954753;29;20199;-50
2022/05/13 01:15:02;;;;;;;7.97;2.53;;;11.60;99.90;;;;;;4955089;28;20047;-49
2022/05/13 01:20:27;;;;;;;10.45;2.25;;;11.40;99.90;;;;;;4954837;28;20505;-52
2022/05/13 01:23:22;;;;;;;6.97;2.30;;;11.50;99.90;;;;;;4954486;28;20142;-50
2022/05/13 01:25:51;;;;;;;7.82;1.98;;;11.50;99.90;;;;;;4953701;28;20392;-48
2022/05/13 01:28:21;;;;;;;8.48;2.28;;;11.40;99.90;;;;;;4953563;28;20050;-50
2022/05/13 01:30:50;;;;;;;7.00;2.40;;;11.50;99.90;;;;;;4954438;29;20078;-48
2022/05/13 01:33:16;;;;;;;7.20;2.20;;;11.50;99.90;;;;;;4954361;28;20043;-49
2022/05/13 01:35:46;;;;;;;6.15;2.20;;;11.50;99.90;;;;;;4954436;29;20368;-47
2022/05/13 01:38:12;;;;;;;9.27;2.55;;;11.50;99.90;;;;;;4954669;28;20039;-49
2022/05/13 01:40:39;;;;;;;7.95;2.53;;;11.40;99.90;;;;;;4953176;29;20511;-47
2022/05/13 01:43:05;;;;;;;9.07;2.92;;;11.30;99.90;;;;;;4954227;29;20809;-51
2022/05/13 01:45:31;;;;;;;7.47;2.35;;;11.30;99.90;;;;;;4937060;29;20487;-48
2022/05/13 01:47:57;;;;;;;7.05;2.42;;;11.30;99.90;;;;;;4963301;28;20105;-50
2022/05/13 01:50:23;;;;;;;10.65;2.33;;;11.30;99.90;;;;;;4973525;28;20078;-51
2022/05/13 01:52:49;;;;;;;8.68;2.25;;;11.40;99.90;;;;;;4973211;28;20557;-49
2022/05/13 01:55:16;;;;;;;7.45;2.20;;;11.30;99.90;;;;;;4973402;28;20066;-50
2022/05/13 01:57:41;;;;;;;6.90;2.40;;;11.30;99.90;;;;;;4973012;28;20053;-52
2022/05/13 02:00:08;;;;;;;6.82;2.30;;;11.40;99.90;;;;;;4973328;28;20031;-51
2022/05/13 02:03:44;;;;;;;10.25;2.63;;;11.30;99.90;;;;;;4973012;28;20846;-51
2022/05/13 02:05:22;;;;;;;9.57;2.53;;;11.20;99.90;;;;;;4958919;28;20046;-49
2022/05/13 02:07:48;;;;;;;9.55;2.65;;;11.30;99.90;;;;;;4955832;28;20066;-49
2022/05/13 02:10:14;;;;;;;9.30;2.47;;;11.20;99.90;;;;;;4972981;28;20083;-49
2022/05/13 02:12:40;;;;;;;7.50;2.60;;;11.30;99.90;;;;;;4972929;28;20089;-49
2022/05/13 02:15:07;;;;;;;10.05;2.88;;;11.20;99.90;;;;;;4972846;28;20035;-47
2022/05/13 02:17:33;;;;;;;8.05;2.72;;;11.20;99.90;;;;;;4972452;28;20097;-51
2022/05/13 02:19:58;;;;;;;5.90;2.50;;;11.20;99.90;;;;;;4973300;28;20122;-49
2022/05/13 02:22:24;;;;;;;11.13;2.53;;;11.20;99.90;;;;;;4972880;28;20123;-49
2022/05/13 02:24:50;;;;;;;8.57;2.70;;;11.20;99.90;;;;;;4971491;28;20050;-48
2022/05/13 02:27:16;;;;;;;7.70;2.95;;;11.30;99.90;;;;;;4972631;28;20043;-51
2022/05/13 02:29:41;;;;;;;9.18;2.20;;;11.30;99.90;;;;;;4972862;28;20601;-48
2022/05/13 02:32:08;;;;;;;10.85;2.75;;;11.20;99.90;;;;;;4972780;28;20051;-49
2022/05/13 02:34:36;;;;;;;7.85;3.35;;;11.20;99.90;;;;;;4972841;28;20046;-48
2022/05/13 02:37:03;;;;;;;7.88;2.75;;;11.30;99.90;;;;;;4972917;28;20077;-50
2022/05/13 02:39:29;;;;;;;13.52;2.80;;;11.20;99.90;;;;;;4972024;28;20085;-47
2022/05/13 02:41:54;;;;;;;7.35;2.60;;;11.20;99.90;;;;;;4972416;28;20042;-46
2022/05/13 02:44:21;;;;;;;8.50;2.78;;;11.20;99.90;;;;;;4972287;28;20089;-50
2022/05/13 02:46:47;;;;;;;12.10;3.50;;;11.20;99.90;;;;;;4972213;28;20113;-51
2022/05/13 02:49:13;;;;;;;8.50;2.75;;;11.20;99.90;;;;;;4951863;29;20043;-50
2022/05/13 02:51:40;;;;;;;8.52;2.40;;;11.20;99.90;;;;;;4953139;29;20046;-48
2022/05/13 02:54:07;;;;;;;8.13;2.70;;;11.10;99.90;;;;;;4953233;28;20050;-48
2022/05/13 02:56:33;;;;;;;11.10;2.80;;;11.10;99.90;;;;;;4952801;28;20101;-50
2022/05/13 02:58:59;;;;;;;8.60;2.78;;;11.20;99.90;;;;;;4953136;28;20031;-51
2022/05/13 03:01:25;;;;;;;12.13;2.78;;;11.10;99.90;;;;;;4952808;29;20054;-50
2022/05/13 03:03:51;;;;;;;7.72;3.05;;;11.10;99.90;;;;;;4951598;29;20081;-50
2022/05/13 03:06:19;;;;;;;9.85;3.05;;;11.10;99.90;;;;;;4953106;29;20110;-48
2022/05/13 03:08:46;;;;;;;8.27;3.00;;;11.10;99.90;;;;;;4952959;29;20035;-51
2022/05/13 03:11:11;;;;;;;10.80;2.95;;;11.10;99.90;;;;;;4953006;29;20198;-50
2022/05/13 03:13:37;;;;;;;9.77;2.85;;;11.10;99.90;;;;;;4952830;29;20130;-49
2022/05/13 03:16:06;;;;;;;11.18;3.38;;;11.10;99.90;;;;;;4952913;28;20044;-48
2022/05/13 03:18:32;;;;;;;11.50;2.50;;;11.00;99.90;;;;;;4952409;28;20059;-48
2022/05/13 03:20:57;;;;;;;12.70;2.80;;;11.10;99.90;;;;;;4952996;29;20075;-51
2022/05/13 03:23:23;;;;;;;12.43;2.95;;;11.10;99.90;;;;;;4952618;29;20051;-52
2022/05/13 03:25:48;;;;;;;9.82;2.95;;;11.20;99.90;;;;;;4952619;29;20043;-51
2022/05/13 03:28:14;;;;;;;10.68;2.90;;;11.10;99.90;;;;;;4952918;29;20123;-46
2022/05/13 03:30:40;;;;;;;10.82;2.83;;;11.20;99.90;;;;;;4952602;29;20043;-47
2022/05/13 03:33:06;;;;;;;11.20;2.97;;;11.20;99.90;;;;;;4952709;29;20047;-46
2022/05/13 03:35:32;;;;;;;10.70;3.20;;;11.20;99.90;;;;;;4952845;29;20069;-48
2022/05/13 03:37:57;;;;;;;10.82;2.85;;;11.20;99.90;;;;;;4951583;29;20041;-47
2022/05/13 03:40:23;;;;;;;12.05;2.75;;;11.20;99.90;;;;;;4952746;28;20704;-49
2022/05/13 03:42:49;;;;;;;11.20;3.10;;;11.20;99.90;;;;;;4951405;29;20043;-49
2022/05/13 03:45:18;;;;;;;13.75;2.92;;;11.20;99.90;;;;;;4952823;29;20392;-51
2022/05/13 03:47:44;;;;;;;12.35;3.03;;;11.10;99.90;;;;;;4957968;28;20055;-51
2022/05/13 03:50:11;;;;;;;13.10;3.22;;;11.00;99.90;;;;;;4971950;28;20065;-50
2022/05/13 03:52:37;;;;;;;13.73;3.00;;;11.10;99.90;;;;;;4974787;28;20042;-49
2022/05/13 03:55:06;;;;;;;11.80;2.88;;;11.10;99.90;;;;;;4975604;28;20638;-51
2022/05/13 03:57:31;;;;;;;10.75;3.45;;;11.10;99.90;;;;;;4975427;28;20557;-50
2022/05/13 03:59:58;;;;;;;11.07;3.17;;;11.10;99.90;;;;;;4975578;28;20043;-50
2022/05/13 04:02:25;;;;;;;13.15;3.38;;;11.10;99.90;;;;;;4975482;28;20051;-50
2022/05/13 04:10:19;;;;;;;12.88;3.10;;;11.10;99.90;;;;;;4975229;28;20053;-50
2022/05/13 04:18:13;;;;;;;;;;;11.10;99.90;;;;;;4974837;28;20043;-49
2022/05/13 04:20:39;;;;;;;14.48;3.65;;;11.10;99.90;;;;;;4974965;28;19922;-49
2022/05/13 04:23:05;;;;;;;12.63;3.30;;;11.10;99.90;;;;;;4974880;28;20043;-51
2022/05/13 04:25:32;;;;;;;14.07;3.50;;;11.10;99.90;;;;;;4975061;28;20050;-48
2022/05/13 04:27:58;;;;;;;15.95;3.63;;;11.10;99.90;;;;;;4975021;28;20038;-49
2022/05/13 04:30:24;;;;;;;14.10;4.05;;;11.20;99.90;;;;;;4974828;28;20043;-49
2022/05/13 04:32:50;;;;;;;11.45;3.72;;;11.10;99.90;;;;;;4974598;28;20153;-49
2022/05/13 04:35:16;;;;;;;10.15;3.38;;;11.20;99.90;;;;;;4974942;28;20073;-48
2022/05/13 04:37:42;;;;;;;14.02;3.80;;;11.20;99.90;;;;;;4974992;28;20034;-50
2022/05/13 04:40:08;;;;;;;16.48;3.92;;;11.10;99.90;;;;;;4974936;28;20383;-48
2022/05/13 04:42:49;;;;;;;13.35;3.97;;;11.20;99.90;;;;;;4974709;28;20505;-48
2022/05/13 04:45:19;;;;;;;15.75;4.43;;;11.30;99.90;;;;;;4974604;28;20046;-49
2022/05/13 04:50:28;;;;;;;19.30;3.92;;;11.30;99.90;;;;;;4974636;28;20054;-49
2022/05/13 04:52:54;;;;;;;16.90;3.72;;;11.30;99.90;;;;;;4974385;28;20054;-48
2022/05/13 04:55:20;;;;;;;14.10;3.65;;;11.40;99.90;;;;;;4973198;28;20034;-47
2022/05/13 04:57:45;;;;;;;17.70;4.13;;;11.40;99.90;;;;;;4974456;28;20375;-50
2022/05/13 05:00:12;;;;;;;18.42;4.78;;;11.40;99.90;;;;;;4974322;28;20082;-50
2022/05/13 05:02:37;;;;;;;14.07;4.15;;;11.40;99.90;;;;;;4973039;28;20035;-48
2022/05/13 05:05:03;;;;;;;14.88;4.07;;;11.40;99.90;;;;;;4974546;28;20045;-48
2022/05/13 05:07:29;;;;;;;16.33;4.50;;;11.50;99.90;;;;;;4974218;28;20097;-50
2022/05/13 05:09:54;;;;;;;14.75;3.95;;;11.60;99.90;;;;;;4974468;28;20130;-46
2022/05/13 05:12:20;;;;;;;14.10;3.88;;;11.60;99.90;;;;;;4974174;28;20130;-50
2022/05/13 05:14:46;;;;;;;14.60;4.20;;;11.70;99.90;;;;;;4974046;28;20065;-50
2022/05/13 05:17:11;;;;;;;18.27;4.68;;;11.70;99.90;;;;;;4973052;28;20128;-51
2022/05/13 05:19:38;;;;;;;17.48;4.60;;;11.70;99.90;;;;;;4974191;28;20074;-49
2022/05/13 05:22:05;;;;;;;12.77;4.18;;;11.70;99.90;;;;;;4973739;28;20039;-49
2022/05/13 05:24:31;;;;;;;19.65;5.07;;;11.80;99.90;;;;;;4974158;28;20035;-50
2022/05/13 05:26:57;;;;;;;17.30;4.43;;;11.90;99.90;;;;;;4973722;28;20038;-49
2022/05/13 05:29:23;;;;;;;13.73;4.75;;;12.00;99.90;;;;;;4974119;28;20152;-49
2022/05/13 05:31:49;;;;;;;14.32;5.03;;;12.10;99.90;;;;;;4974175;28;20035;-49
2022/05/13 05:34:17;;;;;;;18.98;4.80;;;12.20;99.90;;;;;;4973820;28;20525;-49
2022/05/13 05:36:43;;;;;;;18.67;4.95;;;12.30;99.90;;;;;;4974159;28;20074;-50
2022/05/13 05:39:10;;;;;;;16.33;4.05;;;12.40;99.90;;;;;;4973540;28;20069;-47
2022/05/13 05:41:36;;;;;;;21.35;4.82;;;12.50;99.90;;;;;;4973266;28;20093;-51
2022/05/13 05:44:02;;;;;;;16.42;4.55;;;12.60;99.90;;;;;;4973468;28;20126;-47
2022/05/13 05:46:28;;;;;;;20.58;4.78;;;12.70;99.90;;;;;;4973574;28;20161;-47
2022/05/13 05:48:53;;;;;;;16.30;4.03;;;12.70;99.90;;;;;;4972959;28;20403;-47
2022/05/13 05:51:20;;;;;;;10.30;3.50;;;12.70;99.90;;;;;;4973365;28;20039;-51
2022/05/13 05:59:14;;;;;;;18.20;4.30;;;12.80;99.90;;;;;;4973086;28;20045;-49
2022/05/13 06:01:40;;;;;;;17.52;3.97;;;12.90;99.90;;;;;;4973280;28;20126;-49
2022/05/13 06:04:06;;;;;;;11.77;3.70;;;12.90;99.90;;;;;;4973153;28;20517;-48
2022/05/13 06:06:32;;;;;;;9.65;3.13;;;13.00;99.90;;;;;;4971804;28;20045;-49
2022/05/13 06:08:59;;;;;;;11.75;3.20;;;13.20;99.90;;;;;;4973036;28;20066;-48
2022/05/13 06:11:25;;;;;;;10.32;2.63;;;13.40;99.90;;;;;;4955606;28;20031;-52
2022/05/13 06:13:53;;;;;;;11.25;2.38;;;13.60;99.90;;;;;;4955407;28;20050;-49
2022/05/13 06:16:19;;;;;;;8.45;1.90;;;13.60;99.90;;;;;;4972551;28;20030;-51
2022/05/13 06:18:45;;;;;;;12.75;1.98;;;13.60;99.90;;;;;;4972370;28;20066;-48
2022/05/13 06:21:11;;;;;;;11.23;2.05;;;13.60;99.90;;;;;;4972767;28;20074;-48
2022/05/13 06:23:37;;;;;;;12.95;3.33;;;13.60;99.90;;;;;;4972931;28;20573;-49
2022/05/13 06:26:03;;;;;;;14.45;2.05;;;13.60;99.90;;;;;;4972866;28;20483;-50
2022/05/13 06:28:29;;;;;;;7.38;1.80;;;13.70;99.90;;;;;;4972947;28;20537;-51
2022/05/13 06:30:55;;;;;;;8.77;2.00;;;13.70;99.90;;;;;;4972812;28;20053;-49
2022/05/13 06:33:22;;;;;;;11.35;2.15;;;13.70;99.90;;;;;;4972611;28;20045;-50
2022/05/13 06:35:48;;;;;;;12.45;2.47;;;13.70;99.90;;;;;;4972683;28;20505;-50
2022/05/13 06:38:21;;;;;;;10.93;2.28;;;13.70;99.90;;;;;;4972601;28;20043;-47
2022/05/13 06:40:51;;;;;;;8.18;1.67;;;13.80;99.90;;;;;;4972787;28;20213;-52
2022/05/13 06:43:17;;;;;;;8.00;2.03;;;13.80;99.90;;;;;;4972532;28;20125;-49
2022/05/13 06:45:43;;;;;;;9.52;1.60;;;13.80;99.90;;;;;;4972553;28;20081;-49
2022/05/13 06:48:09;;;;;;;10.80;2.00;;;13.80;99.90;;;;;;4971889;28;20514;-49
2022/05/13 06:50:37;;;;;;;7.05;1.73;;;13.80;99.90;;;;;;4972502;28;20041;-49
2022/05/13 06:53:02;;;;;;;10.05;1.98;;;13.90;99.90;;;;;;4972214;28;20053;-49
2022/05/13 06:55:29;;;;;;;6.30;1.50;;;13.80;99.90;;;;;;4972521;28;20030;-49
2022/05/13 06:57:54;;;;;;;7.78;1.60;;;13.80;99.90;;;;;;4972222;28;20078;-49
2022/05/13 07:00:20;;;;;;;7.15;1.38;;;13.80;99.90;;;;;;4955174;28;20525;-50
2022/05/13 07:02:46;;;;;;;6.07;1.63;;;13.70;99.90;;;;;;4971234;28;20046;-51
2022/05/13 07:05:14;;;;;;;8.02;1.80;;;13.60;99.90;;;;;;4972358;28;20066;-51
2022/05/13 07:07:41;;;;;;;6.80;1.60;;;13.60;99.90;;;;;;4954795;28;20074;-52
2022/05/13 07:10:08;;;;;;;7.22;1.67;;;13.70;99.90;;;;;;4972334;28;20054;-49
2022/05/13 07:12:34;;;;;;;5.10;1.45;;;13.80;99.90;;;;;;4952058;28;20055;-48
2022/05/13 07:15:03;;;;;;;9.27;1.60;;;13.90;99.90;;;;;;4970959;28;20045;-48
2022/05/13 07:17:28;;;;;;;7.55;1.65;;;13.90;99.90;;;;;;4970534;28;20046;-51
2022/05/13 07:19:55;;;;;;;10.52;1.50;;;14.00;99.90;;;;;;4969203;28;20039;-52
2022/05/13 07:22:21;;;;;;;10.05;1.92;;;14.10;99.90;;;;;;4971223;28;20035;-50
2022/05/13 07:24:47;;;;;;;9.77;1.40;;;14.10;99.90;;;;;;4939012;28;20050;-50
2022/05/13 07:27:13;;;;;;;5.15;1.13;;;14.30;99.90;;;;;;4974616;28;20047;-48
2022/05/13 07:29:39;;;;;;;5.80;1.52;;;14.40;99.90;;;;;;4976123;28;20084;-48
2022/05/13 07:32:06;;;;;;;8.43;1.88;;;14.50;99.90;;;;;;4969234;28;20410;-48
2022/05/13 07:34:32;;;;;;;5.47;1.30;;;14.50;99.90;;;;;;4971204;28;20498;-51
2022/05/13 07:36:58;;;;;;;6.55;1.40;;;14.60;99.90;;;;;;4969622;28;20047;-49
2022/05/13 07:42:10;;;;;;;;;;;14.70;99.90;;;;;;4968677;28;20057;-50
2022/05/13 07:44:36;;;;;;;7.60;1.30;;;14.50;99.90;;;;;;4966508;28;19921;-48
2022/05/13 07:47:03;;;;;;;4.97;1.23;;;14.40;99.90;;;;;;4972580;28;20050;-48
2022/05/13 07:49:29;;;;;;;7.00;1.33;;;14.40;99.90;;;;;;4975390;28;20051;-50
2022/05/13 07:51:55;;;;;;;6.22;1.38;;;14.60;99.90;;;;;;4973347;28;20105;-51
2022/05/13 07:54:20;;;;;;;8.40;1.58;;;14.80;99.90;;;;;;4971026;28;20466;-50
2022/05/13 07:56:46;;;;;;;6.55;1.25;;;14.80;99.90;;;;;;4970123;28;20034;-49
2022/05/13 07:59:12;;;;;;;5.88;1.38;;;14.80;99.90;;;;;;4956189;28;20042;-52
2022/05/13 08:01:37;;;;;;;6.20;1.50;;;14.60;99.90;;;;;;4971297;28;20082;-50
2022/05/13 08:04:03;;;;;;;10.73;1.83;;;14.70;99.90;;;;;;4971480;28;20057;-49
2022/05/13 08:06:29;;;;;;;5.97;1.10;;;14.70;99.90;;;;;;4971808;28;20091;-49
2022/05/13 08:08:58;;;;;;;9.23;1.27;;;14.80;99.90;;;;;;4971806;28;20375;-48
2022/05/13 08:11:27;;;;;;;8.07;1.10;;;14.80;99.90;;;;;;4972777;28;20495;-48
2022/05/13 08:13:52;;;;;;;10.13;1.38;;;14.90;99.90;;;;;;4973044;28;20050;-48
2022/05/13 08:16:23;;;;;;;5.28;1.13;;;14.90;99.90;;;;;;4972582;28;20038;-52
2022/05/13 08:18:49;;;;;;;7.75;1.80;;;15.20;99.90;;;;;;4956156;28;20039;-51
2022/05/13 08:21:15;;;;;;;11.38;1.70;;;15.30;99.90;;;;;;4971223;28;20046;-48
2022/05/13 08:23:40;;;;;;;8.85;1.45;;;15.40;99.90;;;;;;4972802;28;20480;-50
2022/05/13 08:26:07;;;;;;;7.72;1.63;;;15.30;99.90;;;;;;4972914;28;20051;-52
2022/05/13 08:28:33;;;;;;;9.82;1.30;;;15.20;99.90;;;;;;4971484;28;20061;-52
2022/05/13 08:30:59;;;;;;;7.00;1.02;;;15.20;99.90;;;;;;4972901;28;20046;-52
2022/05/13 08:33:26;;;;;;;8.52;1.50;;;15.30;99.90;;;;;;4954796;28;20050;-49
2022/05/13 08:35:57;;;;;;;11.05;1.48;;;15.40;99.90;;;;;;4970797;28;20030;-53
2022/05/13 08:38:27;;;;;;;9.65;1.58;;;15.50;99.90;;;;;;4972724;28;20039;-54
2022/05/13 08:41:10;;;;;;;7.00;1.70;;;15.40;99.90;;;;;;4971984;28;20185;-48
2022/05/13 08:43:52;;;;;;;9.00;1.20;;;15.30;99.90;;;;;;4972019;28;20034;-50
2022/05/13 08:46:33;;;;;;;10.48;1.50;;;15.20;99.90;;;;;;4972018;28;20101;-48
2022/05/13 08:49:48;;;;;;;7.47;1.40;;;15.30;99.90;;;;;;4971150;28;20098;-52
2022/05/13 08:55:11;;;;;;;9.65;1.13;;;15.60;99.90;;;;;;4972872;28;20421;-51
2022/05/13 08:57:43;;;;;;;9.93;1.80;;;15.90;99.90;;;;;;4972164;28;20077;-51
2022/05/13 09:00:30;;;;;;;6.82;1.10;;;16.20;99.90;;;;;;4972706;28;20046;-52
2022/05/13 09:03:06;;;;;;;8.55;1.20;;;16.00;99.90;;;;;;4972217;28;20043;-52
2022/05/13 09:05:39;;;;;;;9.80;1.48;;;15.90;99.90;;;;;;4972941;28;20035;-48
2022/05/13 09:08:06;;;;;;;5.47;1.25;;;16.00;99.90;;;;;;4972690;28;20062;-50
2022/05/13 09:10:40;;;;;;;11.82;1.38;;;16.10;99.90;;;;;;4971953;28;20034;-50
2022/05/13 09:13:24;;;;;;;11.68;1.60;;;16.20;99.90;;;;;;4971733;28;20050;-48
2022/05/13 09:15:57;;;;;;;9.88;1.50;;;16.20;99.90;;;;;;4972131;28;20109;-50
2022/05/13 09:18:22;;;;;;;11.02;1.80;;;16.00;99.90;;;;;;4971913;28;20027;-49
2022/05/13 09:20:54;;;;;;;11.23;1.40;;;16.00;99.90;;;;;;4972302;28;20042;-48
2022/05/13 09:23:20;;;;;;;10.68;1.50;;;16.10;99.90;;;;;;4972379;28;20049;-50
2022/05/13 09:26:08;;;;;;;7.43;1.40;;;16.00;99.90;;;;;;4972382;28;20518;-48
2022/05/13 09:28:36;;;;;;;5.30;1.00;;;16.10;99.90;;;;;;4972707;28;20053;-49
2022/05/13 09:31:15;;;;;;;8.18;1.33;;;16.00;99.90;;;;;;4972354;28;20510;-50
2022/05/13 09:33:46;;;;;;;14.93;1.67;;;16.10;99.90;;;;;;4971462;28;20130;-49
2022/05/13 09:36:30;;;;;;;11.27;1.65;;;16.60;99.90;;;;;;4970800;28;20034;-51
2022/05/13 09:38:58;;;;;;;8.23;1.40;;;16.50;99.90;;;;;;4971942;28;20034;-50
2022/05/13 09:41:30;;;;;;;9.25;1.40;;;16.50;99.90;;;;;;4971633;28;20451;-51
2022/05/13 09:44:26;;;;;;;7.97;1.40;;;16.60;99.90;;;;;;4972052;28;20126;-48
2022/05/13 09:47:11;;;;;;;9.13;1.40;;;16.80;99.90;;;;;;4958752;28;20068;-48
2022/05/13 09:49:42;;;;;;;9.05;1.40;;;16.70;99.90;;;;;;4953711;28;20059;-52
2022/05/13 09:52:09;;;;;;;6.63;1.85;;;16.80;99.90;;;;;;4970647;28;20105;-51
2022/05/13 09:54:38;;;;;;;7.32;1.80;;;16.90;99.90;;;;;;4972173;28;20130;-49
2022/05/13 09:57:10;;;;;;;5.82;1.10;;;16.80;99.90;;;;;;4972032;28;20042;-51
2022/05/13 09:59:51;;;;;;;8.23;1.30;;;17.20;99.90;;;;;;4965452;28;20047;-51
2022/05/13 10:02:28;;;;;;;9.00;1.45;;;17.40;99.90;;;;;;4943553;28;20126;-49
2022/05/13 10:05:11;;;;;;;7.40;1.30;;;17.10;99.90;;;;;;4970713;28;20076;-51
2022/05/13 10:07:50;;;;;;;8.35;1.20;;;17.10;99.90;;;;;;4969523;28;20078;-49
2022/05/13 10:15:58;;;;;;;13.90;1.98;;;17.30;99.90;;;;;;4972047;28;20068;-51
2022/05/13 10:18:29;;;;;;;9.05;1.65;;;17.70;99.90;;;;;;4970380;28;20034;-51
2022/05/13 10:21:04;;;;;;;13.90;2.45;;;17.80;99.90;;;;;;4971190;28;20046;-50
2022/05/13 10:23:33;;;;;;;;;;;17.30;99.90;;;;;;4972065;28;20046;-52
2022/05/13 10:26:02;;;;;;;10.90;2.13;;;17.30;99.90;;;;;;4971924;28;19961;-50
2022/05/13 10:28:58;;;;;;;16.85;2.13;;;17.60;99.90;;;;;;4971950;28;20050;-50
2022/05/13 10:31:28;;;;;;;9.55;1.67;;;17.00;99.90;;;;;;4971141;28;20121;-49
2022/05/13 10:34:20;;;;;;;6.97;1.50;;;17.40;99.90;;;;;;4972630;28;20050;-50
2022/05/13 10:36:57;;;;;;;6.78;1.50;;;17.50;99.90;;;;;;4972537;28;20038;-49
2022/05/13 10:39:44;;;;;;;9.52;1.42;;;17.60;99.90;;;;;;4970936;28;20039;-50
2022/05/13 10:42:34;;;;;;;6.60;1.50;;;17.80;99.90;;;;;;4972451;28;20547;-52
2022/05/13 10:45:15;;;;;;;10.43;1.92;;;17.30;99.90;;;;;;4972645;28;20042;-50
2022/05/13 10:47:46;;;;;;;9.70;1.65;;;17.20;99.90;;;;;;4970596;28;20514;-50
2022/05/13 10:50:51;;;;;;;7.78;1.52;;;17.00;99.90;;;;;;4970388;28;20087;-52
2022/05/13 10:53:38;;;;;;;14.98;1.75;;;17.60;99.90;;;;;;4969794;28;20043;-51
2022/05/13 10:56:16;;;;;;;13.88;1.80;;;17.80;99.90;;;;;;4970065;28;20479;-48
2022/05/13 10:58:50;;;;;;;13.55;2.08;;;17.90;99.90;;;;;;4971433;28;20399;-51
2022/05/13 11:01:39;;;;;;;10.18;1.80;;;17.40;99.90;;;;;;4971761;28;20035;-48
2022/05/13 11:04:32;;;;;;;9.25;1.73;;;17.30;99.90;;;;;;4972118;28;20495;-50
2022/05/13 11:07:02;;;;;;;6.93;1.60;;;17.90;99.90;;;;;;4968351;28;20051;-52
2022/05/13 11:09:49;;;;;;;10.82;1.70;;;17.80;99.90;;;;;;4968099;28;20398;-49
2022/05/13 11:12:17;;;;;;;10.27;2.33;;;17.90;99.90;;;;;;4961188;28;20133;-48
2022/05/13 11:15:18;;;;;;;9.77;1.90;;;17.60;99.90;;;;;;4961283;28;20097;-50
2022/05/13 11:18:38;;;;;;;10.70;2.10;;;17.50;99.90;;;;;;4953463;28;20043;-51
2022/05/13 11:21:19;;;;;;;11.25;2.00;;;17.30;99.90;;;;;;4886341;29;20105;-49
2022/05/13 11:27:13;;;;;;;7.75;1.85;;;18.00;99.90;;;;;;4965460;28;20039;-49
2022/05/13 11:30:03;;;;;;;8.25;1.63;;;18.20;99.90;;;;;;4963485;28;20093;-53
2022/05/13 11:32:44;;;;;;;7.95;1.70;;;17.80;99.90;;;;;;4963107;28;20157;-48
2022/05/13 11:35:38;;;;;;;8.88;1.92;;;18.10;99.90;;;;;;4965013;28;20043;-50
2022/05/13 11:38:18;;;;;;;12.32;2.20;;;18.80;99.90;;;;;;4963101;28;20086;-50
2022/05/13 11:40:49;;;;;;;9.50;1.58;;;18.30;99.90;;;;;;4964035;28;20549;-51
2022/05/13 11:43:36;;;;;;;7.10;1.65;;;18.00;99.90;;;;;;4966525;28;20090;-50
2022/05/13 11:46:14;;;;;;;6.72;1.80;;;17.80;99.90;;;;;;4949435;28;20034;-52
2022/05/13 11:48:46;;;;;;;12.38;2.40;;;18.00;99.90;;;;;;4963854;28;20058;-49
2022/05/13 11:51:15;;;;;;;8.13;1.67;;;17.80;99.90;;;;;;4966425;28;20047;-49
2022/05/13 11:53:41;;;;;;;9.20;1.90;;;18.30;99.90;;;;;;4962336;28;20043;-49
2022/05/13 11:56:30;;;;;;;9.30;1.55;;;18.50;99.90;;;;;;4963189;28;20331;-49
2022/05/13 11:59:03;;;;;;;8.95;1.45;;;18.40;99.90;;;;;;4942671;28;20079;-52
2022/05/13 12:01:38;;;;;;;8.65;1.48;;;18.30;99.90;;;;;;4946836;28;20089;-48
2022/05/13 12:04:12;;;;;;;9.10;1.48;;;18.70;99.90;;;;;;4965166;28;20078;-49
2022/05/13 12:06:50;;;;;;;7.90;1.33;;;19.30;99.90;;;;;;4947896;28;20039;-48
2022/05/13 12:09:36;;;;;;;9.25;1.80;;;19.70;99.90;;;;;;4968481;28;20077;-49
2022/05/13 12:12:37;;;;;;;26.70;2.53;;;19.00;99.90;;;;;;4962184;28;20407;-49
2022/05/13 12:15:09;;;;;;;4.93;1.15;;;19.00;99.90;;;;;;4966495;28;20042;-50
2022/05/13 12:17:46;;;;;;;10.52;1.83;;;19.30;99.90;;;;;;4967115;28;20573;-47
2022/05/13 12:20:45;;;;;;;5.93;1.48;;;19.30;99.90;;;;;;4966781;28;20051;-52
2022/05/13 12:23:35;;;;;;;10.07;1.50;;;19.50;99.90;;;;;;4967722;28;20038;-52
2022/05/13 12:26:07;;;;;;;5.82;1.65;;;19.20;99.90;;;;;;4965439;28;20328;-50
2022/05/13 12:29:00;;;;;;;7.65;1.35;;;19.30;99.90;;;;;;4968051;28;20054;-48
2022/05/13 12:31:29;;;;;;;7.30;1.60;;;19.90;99.90;;;;;;4920473;28;20113;-50
2022/05/13 12:39:52;;;;;;;5.90;1.20;;;19.40;99.70;;;;;;4965143;28;20038;-51
2022/05/13 12:42:35;;;;;;;13.13;1.60;;;19.40;99.70;;;;;;4967490;28;20035;-52
2022/05/13 12:45:01;;;;;;;10.55;1.52;;;19.00;99.20;;;;;;4967952;28;20041;-50
2022/05/13 12:47:50;;;;;;;4.25;0.98;;;19.00;99.90;;;;;;4966659;28;20043;-51
2022/05/13 12:50:37;;;;;;;6.55;1.15;;;19.00;99.60;;;;;;4966966;28;20130;-50
2022/05/13 12:53:22;;;;;;;7.47;1.38;;;19.50;99.10;;;;;;4966092;28;20138;-52
2022/05/13 12:55:48;;;;;;;9.02;1.50;;;19.40;99.30;;;;;;4967992;28;20034;-49
2022/05/13 12:58:18;;;;;;;6.57;1.17;;;19.30;99.00;;;;;;4963760;28;20042;-50
2022/05/13 13:00:49;;;;;;;8.18;1.52;;;19.10;98.50;;;;;;4967656;28;20066;-49
2022/05/13 13:03:15;;;;;;;6.10;1.23;;;18.90;99.20;;;;;;4967596;28;20057;-50
2022/05/13 13:05:47;;;;;;;6.85;1.30;;;19.30;99.50;;;;;;4966821;28;20035;-51
2022/05/13 13:08:22;;;;;;;6.25;1.10;;;18.80;99.00;;;;;;4950022;28;20034;-52
2022/05/13 13:11:08;;;;;;;9.43;1.52;;;19.00;99.00;;;;;;4966337;28;20089;-49
2022/05/13 13:13:45;;;;;;;6.68;1.42;;;19.10;98.30;;;;;;4966067;28;21445;-52
2022/05/13 13:16:23;;;;;;;8.93;1.45;;;18.90;98.00;;;;;;4966888;28;20105;-50
2022/05/13 13:19:07;;;;;;;9.45;1.52;;;19.10;98.80;;;;;;4967159;28;20043;-52
2022/05/13 13:21:33;;;;;;;10.18;1.48;;;19.40;98.40;;;;;;4965280;28;20119;-49
2022/05/13 13:24:00;;;;;;;8.07;1.58;;;19.50;99.00;;;;;;4966291;28;20043;-51
2022/05/13 13:26:27;;;;;;;11.00;1.55;;;19.90;98.70;;;;;;4966930;28;20051;-49
2022/05/13 13:28:54;;;;;;;8.52;1.58;;;19.60;98.40;;;;;;4964424;28;20098;-53
2022/05/13 13:31:26;;;;;;;3.47;0.85;;;19.50;98.60;;;;;;4950304;28;20728;-49
2022/05/13 13:33:56;;;;;;;6.45;1.40;;;19.30;98.30;;;;;;4968945;28;20055;-49
2022/05/13 13:36:31;;;;;;;9.63;1.45;;;19.60;98.80;;;;;;4950149;28;20039;-49
2022/05/13 13:39:00;;;;;;;8.50;1.52;;;19.40;98.50;;;;;;4966979;28;20030;-50
2022/05/13 13:41:35;;;;;;;12.90;2.08;;;19.20;99.20;;;;;;4967414;28;20045;-51
2022/05/13 13:44:06;;;;;;;9.90;1.63;;;19.10;98.90;;;;;;4965261;28;20117;-46